Time;durP1;ratioP1;P1;durP2;ratioP2;P2;SDS_P1;SDS_P2;PMS_P1;PMS_P2;Temp;Humidity;BMP_temperature;BMP_pressure;BME280_temperature;BME280_humidity;BME280_pressure;Samples;Min_cycle;Max_cycle;Signal;HPM_P1;HPM_P2
2022/04/01 00:01:40;;;;;;;;;;;3.00;99.90;;;;;;5094079;28;20059;-85
2022/04/01 00:04:05;;;;;;;15.30;7.35;;;3.00;99.90;;;;;;5093228;28;19904;-84
2022/04/01 00:06:49;;;;;;;11.18;6.60;;;3.10;99.90;;;;;;5093532;28;20030;-84
2022/04/01 00:09:15;;;;;;;15.18;7.22;;;3.00;99.90;;;;;;5075810;28;20051;-85
2022/04/01 00:11:52;;;;;;;16.45;7.32;;;3.00;99.90;;;;;;5093577;28;20039;-84
2022/04/01 00:14:18;;;;;;;14.27;6.38;;;3.00;99.90;;;;;;5075064;28;20073;-85
2022/04/01 00:16:44;;;;;;;9.63;6.63;;;3.00;99.90;;;;;;5093468;28;20024;-84
2022/04/01 00:19:20;;;;;;;18.27;5.43;;;3.00;99.90;;;;;;5093286;28;20074;-84
2022/04/01 00:21:46;;;;;;;15.65;5.53;;;2.90;99.90;;;;;;5093372;28;21117;-84
2022/04/01 00:24:13;;;;;;;15.85;6.07;;;2.90;99.90;;;;;;5093264;28;20043;-85
2022/04/01 00:26:39;;;;;;;13.60;6.90;;;2.90;99.90;;;;;;5093316;28;20028;-85
2022/04/01 00:29:14;;;;;;;15.35;5.53;;;3.00;99.90;;;;;;5093366;28;20024;-85
2022/04/01 00:31:58;;;;;;;16.02;6.18;;;2.90;99.90;;;;;;5088172;28;20046;-85
2022/04/01 00:34:33;;;;;;;14.85;6.47;;;2.90;99.90;;;;;;5092509;28;20028;-85
2022/04/01 00:37:33;;;;;;;26.95;6.05;;;2.90;99.90;;;;;;5092970;28;20535;-84
2022/04/01 00:39:59;;;;;;;17.67;5.97;;;2.80;99.90;;;;;;5074901;28;20028;-85
2022/04/01 00:42:27;;;;;;;14.60;5.45;;;2.80;99.90;;;;;;5074473;28;20384;-85
2022/04/01 00:44:53;;;;;;;15.52;5.97;;;2.70;99.90;;;;;;5093067;28;20373;-83
2022/04/01 00:47:19;;;;;;;16.55;5.72;;;2.70;99.90;;;;;;5093038;28;20031;-85
2022/04/01 00:49:46;;;;;;;12.77;6.80;;;2.60;99.90;;;;;;5092660;28;20379;-85
2022/04/01 00:52:25;;;;;;;22.42;6.88;;;2.60;99.90;;;;;;5092828;28;20017;-84
2022/04/01 00:54:51;;;;;;;20.77;6.50;;;2.60;99.90;;;;;;5092971;28;20090;-84
2022/04/01 00:57:19;;;;;;;15.18;6.60;;;2.60;99.90;;;;;;5092937;28;20028;-84
2022/04/01 00:59:48;;;;;;;19.00;6.13;;;2.60;99.90;;;;;;5092802;28;20051;-85
2022/04/01 01:02:14;;;;;;;17.25;6.65;;;2.50;99.90;;;;;;5074875;28;20031;-85
2022/04/01 01:05:04;;;;;;;17.88;5.95;;;2.50;99.90;;;;;;5092557;28;20016;-86
2022/04/01 01:07:30;;;;;;;18.67;6.20;;;2.50;99.90;;;;;;5092689;28;20020;-86
2022/04/01 01:09:59;;;;;;;19.98;6.22;;;2.40;99.90;;;;;;5092802;28;20440;-87
2022/04/01 01:12:25;;;;;;;15.13;6.32;;;2.40;99.90;;;;;;5074467;28;20020;-86
2022/04/01 01:14:51;;;;;;;11.60;5.93;;;2.40;99.90;;;;;;5092817;28;20468;-86
2022/04/01 01:17:16;;;;;;;13.63;6.47;;;2.40;99.90;;;;;;5074671;28;20027;-86
2022/04/01 01:19:47;;;;;;;22.58;6.45;;;2.40;99.90;;;;;;5092357;28;20078;-86
2022/04/01 01:22:14;;;;;;;13.52;6.88;;;2.30;99.90;;;;;;5072235;28;20435;-85
2022/04/01 01:24:45;;;;;;;21.33;7.47;;;2.30;99.90;;;;;;5090299;28;20024;-85
2022/04/01 01:27:13;;;;;;;10.38;5.93;;;2.30;99.90;;;;;;5092626;28;20047;-86
2022/04/01 01:29:42;;;;;;;15.65;6.57;;;2.40;99.90;;;;;;5092475;28;20023;-86
2022/04/01 01:32:14;;;;;;;26.58;6.30;;;2.30;99.90;;;;;;5092274;28;20028;-86
2022/04/01 01:34:41;;;;;;;14.55;5.82;;;2.30;99.90;;;;;;5091744;28;20111;-85
2022/04/01 01:37:10;;;;;;;15.27;6.90;;;2.20;99.90;;;;;;5074336;28;20028;-84
2022/04/01 01:39:38;;;;;;;16.85;6.40;;;2.20;99.90;;;;;;5092240;28;20411;-86
2022/04/01 01:42:05;;;;;;;11.05;7.10;;;2.10;99.90;;;;;;5092323;28;20107;-85
2022/04/01 01:44:38;;;;;;;14.65;7.10;;;2.10;99.90;;;;;;5092287;28;20052;-84
2022/04/01 01:47:05;;;;;;;12.18;5.95;;;2.10;99.90;;;;;;5074220;28;20443;-85
2022/04/01 01:49:31;;;;;;;11.07;6.68;;;2.00;99.90;;;;;;5091817;28;20407;-85
2022/04/01 01:54:59;;;;;;;12.38;6.57;;;1.90;99.90;;;;;;5094425;28;20027;-85
2022/04/01 01:57:35;;;;;;;12.77;6.40;;;1.90;99.90;;;;;;5096050;28;20024;-86
2022/04/01 02:00:10;;;;;;;13.40;6.93;;;1.80;99.90;;;;;;5096001;28;20103;-84
2022/04/01 02:02:45;;;;;;;16.55;6.20;;;1.80;99.90;;;;;;5095708;28;20057;-84
2022/04/01 02:05:10;;;;;;;15.40;7.35;;;1.70;99.90;;;;;;5095803;28;20103;-84
2022/04/01 02:07:41;;;;;;;18.13;6.85;;;1.70;99.90;;;;;;5095737;28;20034;-85
2022/04/01 02:10:07;;;;;;;13.70;7.07;;;1.70;99.90;;;;;;5077602;28;20038;-85
2022/04/01 02:12:32;;;;;;;13.63;6.60;;;1.60;99.90;;;;;;5077680;28;20027;-85
2022/04/01 02:15:05;;;;;;;15.23;7.13;;;1.60;99.90;;;;;;5095660;28;20085;-84
2022/04/01 02:17:31;;;;;;;16.13;6.60;;;1.60;99.90;;;;;;5095210;28;20433;-85
2022/04/01 02:19:59;;;;;;;14.25;6.80;;;1.50;99.90;;;;;;5095495;28;20035;-86
2022/04/01 02:22:25;;;;;;;15.75;6.50;;;1.50;99.90;;;;;;5095514;28;20046;-86
2022/04/01 02:24:51;;;;;;;13.38;7.03;;;1.50;99.90;;;;;;5095498;28;20031;-86
2022/04/01 02:27:25;;;;;;;12.55;7.32;;;1.60;99.90;;;;;;5095378;28;20383;-85
2022/04/01 02:29:51;;;;;;;11.43;6.63;;;1.50;99.90;;;;;;5095444;28;20050;-85
2022/04/01 02:32:16;;;;;;;21.48;7.55;;;1.50;99.90;;;;;;5077021;28;20028;-85
2022/04/01 02:34:43;;;;;;;14.05;7.03;;;1.50;99.90;;;;;;5092925;28;20031;-85
2022/04/01 02:37:09;;;;;;;18.88;7.55;;;1.50;99.90;;;;;;5095377;28;20392;-85
2022/04/01 02:39:34;;;;;;;14.43;6.70;;;1.50;99.90;;;;;;5095287;28;20032;-84
2022/04/01 02:42:06;;;;;;;17.85;6.65;;;1.50;99.90;;;;;;5095205;28;20544;-85
2022/04/01 02:44:33;;;;;;;18.92;6.63;;;1.50;99.90;;;;;;5095169;28;20069;-84
2022/04/01 02:47:05;;;;;;;12.90;6.90;;;1.50;99.90;;;;;;5095014;28;20061;-85
2022/04/01 02:49:30;;;;;;;14.93;7.22;;;1.50;99.90;;;;;;5094491;28;20031;-84
2022/04/01 02:52:05;;;;;;;13.57;7.13;;;1.50;99.90;;;;;;5094957;28;20024;-85
2022/04/01 02:54:33;;;;;;;16.92;7.05;;;1.50;99.90;;;;;;5094944;28;20065;-85
2022/04/01 02:56:59;;;;;;;14.73;6.82;;;1.50;99.90;;;;;;5095055;28;20392;-84
2022/04/01 02:59:25;;;;;;;15.68;7.85;;;1.40;99.90;;;;;;5094856;28;20020;-85
2022/04/01 03:01:57;;;;;;;21.85;7.55;;;1.40;99.90;;;;;;5094718;28;20024;-85
2022/04/01 03:04:22;;;;;;;15.15;7.32;;;1.40;99.90;;;;;;5075791;28;20020;-84
2022/04/01 03:06:57;;;;;;;19.33;6.97;;;1.40;99.90;;;;;;5074256;28;20032;-84
2022/04/01 03:09:23;;;;;;;17.58;7.38;;;1.40;99.90;;;;;;5089130;28;20024;-85
2022/04/01 03:11:49;;;;;;;16.85;7.75;;;1.40;99.90;;;;;;5076388;28;20484;-85
2022/04/01 03:14:26;;;;;;;12.43;7.03;;;1.30;99.90;;;;;;5094348;28;20106;-85
2022/04/01 03:16:52;;;;;;;15.00;8.00;;;1.30;99.90;;;;;;5094515;28;20424;-85
2022/04/01 03:19:18;;;;;;;19.30;8.63;;;1.30;99.90;;;;;;5075915;28;20051;-85
2022/04/01 03:21:47;;;;;;;21.67;8.05;;;1.30;99.90;;;;;;5076356;28;20074;-84
2022/04/01 03:24:13;;;;;;;13.68;7.82;;;1.30;99.90;;;;;;5094155;28;20016;-85
2022/04/01 03:26:39;;;;;;;14.00;7.55;;;1.20;99.90;;;;;;5076158;28;20020;-83
2022/04/01 03:29:08;;;;;;;32.60;11.00;;;1.20;99.90;;;;;;5075989;28;20380;-84
2022/04/01 03:31:34;;;;;;;21.05;8.77;;;1.10;99.90;;;;;;5074079;28;20087;-84
2022/04/01 03:34:05;;;;;;;15.13;7.32;;;1.10;99.90;;;;;;5078155;28;20468;-85
2022/04/01 03:36:35;;;;;;;16.45;8.27;;;1.10;99.90;;;;;;5075723;28;20040;-83
2022/04/01 03:39:02;;;;;;;19.10;7.80;;;1.00;99.90;;;;;;5094004;28;20055;-84
2022/04/01 03:41:31;;;;;;;15.15;8.45;;;1.00;99.90;;;;;;5075780;28;20056;-83
2022/04/01 03:44:00;;;;;;;16.60;9.50;;;1.00;99.90;;;;;;5087431;28;20103;-84
2022/04/01 03:47:06;;;;;;;19.25;7.65;;;1.00;99.90;;;;;;5063931;28;20020;-84
2022/04/01 03:49:33;;;;;;;15.88;8.40;;;0.90;99.90;;;;;;5093856;28;20020;-85
2022/04/01 03:52:14;;;;;;;19.02;9.60;;;0.90;99.90;;;;;;5093799;28;20016;-84
2022/04/01 03:54:43;;;;;;;23.48;9.18;;;0.90;99.90;;;;;;5075577;28;20028;-84
2022/04/01 03:57:11;;;;;;;16.67;10.02;;;0.90;99.90;;;;;;5087754;28;20035;-84
2022/04/01 03:59:50;;;;;;;16.02;9.88;;;0.90;99.90;;;;;;5075618;28;20111;-85
2022/04/01 04:02:18;;;;;;;22.63;10.55;;;0.90;99.90;;;;;;5092906;28;20032;-84
2022/04/01 04:04:56;;;;;;;26.33;13.75;;;0.90;99.90;;;;;;5093911;28;20040;-84
2022/04/01 04:07:24;;;;;;;29.30;15.77;;;0.90;99.90;;;;;;5075417;28;20024;-84
2022/04/01 04:09:50;;;;;;;23.42;14.80;;;0.90;99.90;;;;;;5093519;28;20482;-84
2022/04/01 04:12:31;;;;;;;25.00;14.57;;;0.90;99.90;;;;;;5093420;28;20028;-84
2022/04/01 04:14:57;;;;;;;24.05;14.45;;;1.00;99.90;;;;;;5075480;28;20050;-85
2022/04/01 04:17:39;;;;;;;21.20;13.88;;;0.90;99.90;;;;;;5091731;28;20112;-84
2022/04/01 04:20:10;;;;;;;26.85;14.60;;;0.90;99.90;;;;;;5093441;28;20028;-85
2022/04/01 04:23:22;;;;;;;22.88;13.13;;;0.90;99.90;;;;;;5071644;28;20029;-84
2022/04/01 04:26:04;;;;;;;22.30;12.43;;;0.90;99.90;;;;;;5054991;28;20468;-85
2022/04/01 04:28:34;;;;;;;20.33;12.55;;;0.90;99.90;;;;;;5055142;28;20032;-84
2022/04/01 04:31:04;;;;;;;23.90;12.45;;;0.90;99.90;;;;;;5055057;28;20033;-85
2022/04/01 04:33:37;;;;;;;17.67;12.00;;;0.80;99.90;;;;;;5077305;28;20020;-85
2022/04/01 04:36:14;;;;;;;16.50;12.07;;;0.80;99.90;;;;;;5093016;28;20055;-85
2022/04/01 04:38:41;;;;;;;20.35;12.07;;;0.80;99.90;;;;;;5085189;28;20058;-85
2022/04/01 04:41:11;;;;;;;19.73;11.65;;;0.80;99.90;;;;;;5074580;28;20036;-85
2022/04/01 04:43:41;;;;;;;25.48;13.95;;;0.80;99.90;;;;;;5092980;28;20168;-85
2022/04/01 04:46:31;;;;;;;23.02;13.65;;;0.80;99.90;;;;;;5092743;28;20031;-84
2022/04/01 04:48:56;;;;;;;18.63;12.20;;;0.80;99.90;;;;;;5092623;28;20024;-84
2022/04/01 04:51:28;;;;;;;21.73;13.25;;;0.70;99.90;;;;;;5092928;28;20028;-85
2022/04/01 04:53:59;;;;;;;22.00;13.40;;;0.80;99.90;;;;;;5092722;28;20024;-84
2022/04/01 04:56:26;;;;;;;21.85;13.70;;;0.70;99.90;;;;;;5092105;28;20107;-85
2022/04/01 04:59:05;;;;;;;19.70;12.38;;;0.70;99.90;;;;;;5092336;28;20042;-84
2022/04/01 05:01:39;;;;;;;23.23;12.55;;;0.70;99.90;;;;;;5092324;28;20043;-84
2022/04/01 05:04:51;;;;;;;19.48;12.35;;;0.70;99.90;;;;;;5092105;28;20008;-85
2022/04/01 05:07:39;;;;;;;24.23;13.65;;;0.70;99.90;;;;;;5092739;28;20016;-84
2022/04/01 05:10:08;;;;;;;22.85;12.60;;;0.70;99.90;;;;;;5092694;28;20069;-84
2022/04/01 05:13:18;;;;;;;24.38;13.73;;;0.70;99.90;;;;;;5092457;28;20024;-85
2022/04/01 05:16:02;;;;;;;23.33;15.38;;;0.70;99.90;;;;;;5074258;28;20075;-84
2022/04/01 05:18:52;;;;;;;25.95;15.60;;;0.70;99.90;;;;;;5092112;28;20020;-85
2022/04/01 05:21:19;;;;;;;25.27;15.70;;;0.70;99.90;;;;;;5092613;28;20020;-85
2022/04/01 05:23:48;;;;;;;26.77;16.75;;;0.70;99.90;;;;;;5092487;28;20061;-85
2022/04/01 05:26:15;;;;;;;31.08;17.17;;;0.60;99.90;;;;;;5092265;28;20522;-86
2022/04/01 05:29:13;;;;;;;32.35;17.02;;;0.60;99.90;;;;;;5092734;28;20695;-85
2022/04/01 05:32:10;;;;;;;26.40;17.60;;;0.60;99.90;;;;;;5070831;28;20389;-85
2022/04/01 05:34:41;;;;;;;28.75;17.45;;;0.50;99.90;;;;;;5058510;28;20407;-84
2022/04/01 05:37:08;;;;;;;26.77;17.25;;;0.60;99.90;;;;;;5081491;28;20566;-84
2022/04/01 05:39:36;;;;;;;28.92;17.20;;;0.60;99.90;;;;;;5076079;28;20024;-85
2022/04/01 05:42:07;;;;;;;24.77;16.65;;;0.60;99.90;;;;;;5086337;28;20062;-84
2022/04/01 05:44:33;;;;;;;26.60;17.45;;;0.60;99.90;;;;;;5096108;28;20476;-84
2022/04/01 05:47:06;;;;;;;22.60;15.23;;;0.60;99.90;;;;;;5096239;28;20024;-86
2022/04/01 05:49:32;;;;;;;25.02;14.05;;;0.60;99.90;;;;;;5095879;28;20491;-85
2022/04/01 05:52:08;;;;;;;18.63;11.95;;;0.60;99.90;;;;;;5096018;28;20029;-85
2022/04/01 05:54:34;;;;;;;22.27;12.23;;;0.60;99.90;;;;;;5082901;28;20158;-85
2022/04/01 05:57:10;;;;;;;25.80;11.95;;;0.60;99.90;;;;;;5095578;28;20016;-85
2022/04/01 05:59:36;;;;;;;;;;;0.60;99.90;;;;;;5078144;28;20028;-86
2022/04/01 06:02:32;;;;;;;26.38;11.93;;;0.60;99.90;;;;;;5077368;28;19908;-85
2022/04/01 06:05:20;;;;;;;21.38;11.98;;;0.60;99.90;;;;;;5077334;28;20555;-85
2022/04/01 06:07:49;;;;;;;17.42;11.07;;;0.60;99.90;;;;;;5095683;28;20059;-86
2022/04/01 06:10:29;;;;;;;17.55;11.15;;;0.60;99.90;;;;;;5077580;28;20020;-85
2022/04/01 06:12:58;;;;;;;16.25;10.63;;;0.60;99.90;;;;;;5095337;28;20376;-86
2022/04/01 06:15:48;;;;;;;17.58;11.63;;;0.50;99.90;;;;;;5077909;28;20012;-85
2022/04/01 06:18:30;;;;;;;17.23;10.95;;;0.60;99.90;;;;;;5076885;28;20027;-85
2022/04/01 06:21:02;;;;;;;23.90;10.98;;;0.50;99.90;;;;;;5095523;28;20064;-85
2022/04/01 06:24:06;;;;;;;17.02;9.88;;;0.60;99.90;;;;;;5095455;28;20020;-88
2022/04/01 06:26:38;;;;;;;24.30;11.02;;;0.50;99.90;;;;;;5076678;28;20027;-86
2022/04/01 06:29:33;;;;;;;28.88;11.82;;;0.50;99.90;;;;;;5057359;28;20115;-85
2022/04/01 06:32:05;;;;;;;24.52;10.85;;;0.50;99.90;;;;;;5093925;28;20024;-86
2022/04/01 06:35:03;;;;;;;16.55;10.02;;;0.50;99.90;;;;;;5087602;28;20025;-85
2022/04/01 06:37:32;;;;;;;18.92;10.70;;;0.50;99.90;;;;;;5039498;28;20033;-84
2022/04/01 06:40:05;;;;;;;15.50;9.10;;;0.50;99.90;;;;;;5054489;28;20108;-86
2022/04/01 06:42:33;;;;;;;17.20;9.48;;;0.40;99.90;;;;;;5053239;28;20028;-85
2022/04/01 06:44:59;;;;;;;16.05;8.43;;;0.50;99.90;;;;;;5054944;28;20094;-85
2022/04/01 06:47:25;;;;;;;19.35;9.07;;;0.50;99.90;;;;;;5053328;28;20104;-85
2022/04/01 06:49:51;;;;;;;16.70;9.35;;;0.50;99.90;;;;;;5054412;28;20024;-85
2022/04/01 06:52:45;;;;;;;17.42;8.75;;;0.50;99.90;;;;;;5054604;28;20531;-85
2022/04/01 06:55:11;;;;;;;18.27;8.85;;;0.50;99.90;;;;;;5054419;28;20100;-85
2022/04/01 06:57:43;;;;;;;18.67;9.20;;;0.50;99.90;;;;;;5053174;28;20116;-84
2022/04/01 07:00:12;;;;;;;15.80;9.00;;;0.50;99.90;;;;;;5052958;28;20029;-85
2022/04/01 07:02:46;;;;;;;21.58;8.40;;;0.50;99.90;;;;;;5043738;28;20477;-85
2022/04/01 07:05:13;;;;;;;16.98;8.40;;;0.40;99.90;;;;;;5033191;28;20064;-85
2022/04/01 07:07:43;;;;;;;13.48;7.70;;;0.40;99.90;;;;;;5052628;28;20029;-85
2022/04/01 07:10:12;;;;;;;20.50;9.05;;;0.40;99.90;;;;;;5054448;28;20091;-84
2022/04/01 07:12:56;;;;;;;14.93;8.38;;;0.40;99.90;;;;;;5054266;28;20423;-85
2022/04/01 07:15:23;;;;;;;16.88;9.30;;;0.40;99.90;;;;;;5053007;28;20029;-85
2022/04/01 07:17:48;;;;;;;15.00;8.73;;;0.40;99.90;;;;;;5053891;28;20119;-85
2022/04/01 07:20:15;;;;;;;17.00;8.80;;;0.40;99.90;;;;;;5053991;28;20032;-86
2022/04/01 07:22:47;;;;;;;18.65;8.98;;;0.50;99.90;;;;;;5053854;28;20025;-85
2022/04/01 07:25:13;;;;;;;16.95;8.70;;;0.40;99.90;;;;;;5054169;28;20028;-85
2022/04/01 07:27:41;;;;;;;18.33;9.02;;;0.50;99.90;;;;;;5052734;28;20032;-85
2022/04/01 07:30:10;;;;;;;17.13;8.43;;;0.50;99.90;;;;;;5053974;28;20025;-85
2022/04/01 07:32:43;;;;;;;20.65;8.40;;;0.50;99.90;;;;;;5053608;28;20150;-86
2022/04/01 07:35:12;;;;;;;15.90;9.60;;;0.60;99.90;;;;;;5059546;28;20488;-85
2022/04/01 07:37:38;;;;;;;21.35;9.23;;;0.60;99.90;;;;;;5094295;28;20058;-85
2022/04/01 07:40:06;;;;;;;14.55;9.77;;;0.60;99.90;;;;;;5094134;28;20113;-85
2022/04/01 07:42:32;;;;;;;21.40;9.63;;;0.50;99.90;;;;;;5075880;28;20115;-85
2022/04/01 07:45:02;;;;;;;19.30;9.85;;;0.50;99.90;;;;;;5093866;28;20020;-86
2022/04/01 07:47:28;;;;;;;18.67;10.52;;;0.40;99.90;;;;;;5093665;28;20138;-85
2022/04/01 07:49:53;;;;;;;28.42;10.23;;;0.40;99.90;;;;;;5093861;28;20523;-85
2022/04/01 07:52:32;;;;;;;14.70;8.82;;;0.40;99.90;;;;;;5092952;28;20055;-85
2022/04/01 07:54:57;;;;;;;21.15;8.30;;;0.30;99.90;;;;;;5093840;28;20031;-86
2022/04/01 07:57:23;;;;;;;15.95;8.90;;;0.30;99.90;;;;;;5093696;28;20020;-85
2022/04/01 07:59:49;;;;;;;22.10;9.77;;;0.20;99.90;;;;;;5093880;28;20074;-88
2022/04/01 08:02:16;;;;;;;17.83;7.60;;;0.10;99.90;;;;;;5093628;28;20423;-86
2022/04/01 08:04:59;;;;;;;17.38;9.07;;;0.10;99.90;;;;;;5093616;28;20468;-88
2022/04/01 08:07:25;;;;;;;21.10;8.68;;;0.10;99.90;;;;;;5075487;28;20020;-87
2022/04/01 08:09:52;;;;;;;16.40;9.00;;;0.10;99.90;;;;;;5093663;28;20365;-87
2022/04/01 08:12:19;;;;;;;20.83;9.23;;;0.10;99.90;;;;;;5075125;28;20119;-86
2022/04/01 08:14:45;;;;;;;20.75;8.25;;;0.00;99.90;;;;;;5093497;28;20016;-86
2022/04/01 08:17:12;;;;;;;16.27;8.93;;;0.00;99.90;;;;;;5093126;28;20028;-86
2022/04/01 08:19:42;;;;;;;18.15;9.27;;;0.10;99.90;;;;;;5093001;28;20020;-86
2022/04/01 08:22:08;;;;;;;21.65;9.27;;;0.00;99.90;;;;;;5092901;28;20036;-86
2022/04/01 08:24:41;;;;;;;17.92;9.15;;;0.00;99.90;;;;;;5093372;28;20034;-86
2022/04/01 08:27:07;;;;;;;20.50;7.53;;;0.10;99.90;;;;;;5093252;28;20016;-87
2022/04/01 08:29:34;;;;;;;23.00;8.25;;;0.20;99.90;;;;;;5075104;28;20142;-86
2022/04/01 08:32:07;;;;;;;19.30;8.30;;;0.20;99.90;;;;;;5092857;28;20024;-86
2022/04/01 08:34:33;;;;;;;14.63;7.95;;;0.30;99.90;;;;;;5074985;28;20024;-86
2022/04/01 08:36:59;;;;;;;16.25;9.43;;;0.30;99.90;;;;;;5091977;28;20040;-86
2022/04/01 08:39:33;;;;;;;18.83;8.88;;;0.30;99.90;;;;;;5092735;28;20027;-86
2022/04/01 08:41:58;;;;;;;16.77;8.25;;;0.30;99.90;;;;;;5074314;28;20110;-87
2022/04/01 08:44:24;;;;;;;17.98;8.85;;;0.40;99.90;;;;;;5074647;28;20507;-87
2022/04/01 08:46:50;;;;;;;23.52;10.00;;;0.30;99.90;;;;;;5092800;28;20492;-87
2022/04/01 08:49:26;;;;;;;19.15;8.95;;;0.30;99.90;;;;;;5092944;28;20110;-86
2022/04/01 08:51:52;;;;;;;19.08;9.32;;;0.40;99.90;;;;;;5093080;28;20494;-88
2022/04/01 08:55:00;;;;;;;18.60;10.07;;;0.40;99.90;;;;;;5075085;28;20028;-88
2022/04/01 08:58:00;;;;;;;14.55;8.30;;;0.40;99.90;;;;;;5074909;28;20085;-88
2022/04/01 09:00:25;;;;;;;15.45;8.88;;;0.50;99.90;;;;;;5075122;28;20115;-88
2022/04/01 09:03:41;;;;;;;25.15;8.40;;;0.40;99.90;;;;;;5093694;28;20091;-87
2022/04/01 09:06:07;;;;;;;14.88;8.05;;;0.40;99.90;;;;;;5099775;28;20028;-87
2022/04/01 09:08:37;;;;;;;11.57;7.22;;;0.50;99.90;;;;;;5099718;28;20020;-87
2022/04/01 09:11:33;;;;;;;16.42;8.65;;;0.50;99.90;;;;;;5099560;28;20103;-87
2022/04/01 09:13:59;;;;;;;16.40;7.63;;;0.60;99.90;;;;;;5099533;28;20028;-87
2022/04/01 09:16:41;;;;;;;12.85;7.15;;;0.60;99.90;;;;;;5080961;28;20036;-86
2022/04/01 09:19:08;;;;;;;18.35;7.30;;;0.80;99.90;;;;;;5099501;28;20020;-87
2022/04/01 09:21:41;;;;;;;15.25;6.93;;;0.80;99.90;;;;;;5099495;28;20400;-87
2022/04/01 09:24:09;;;;;;;19.13;7.65;;;0.90;99.90;;;;;;5081239;28;20032;-87
2022/04/01 09:31:42;;;;;;;14.18;6.45;;;1.00;99.90;;;;;;4999327;28;20046;-85
2022/04/01 09:34:28;;;;;;;15.50;7.85;;;1.00;99.90;;;;;;5038796;28;20072;-86
2022/04/01 09:36:56;;;;;;;19.55;7.43;;;1.10;99.90;;;;;;5038811;28;20427;-86
2022/04/01 09:39:28;;;;;;;17.30;6.78;;;1.10;99.90;;;;;;5038459;28;20095;-85
2022/04/01 09:41:55;;;;;;;10.82;6.47;;;1.10;99.90;;;;;;5054365;28;20043;-87
2022/04/01 09:44:31;;;;;;;12.65;6.82;;;1.20;99.90;;;;;;5058975;28;20027;-86
2022/04/01 09:47:00;;;;;;;13.63;7.15;;;1.20;99.90;;;;;;5057276;28;20124;-86
2022/04/01 09:50:05;;;;;;;16.88;6.90;;;1.20;99.90;;;;;;5057441;28;20032;-86
2022/04/01 09:52:36;;;;;;;14.40;6.47;;;1.20;99.90;;;;;;5058801;28;20051;-86
2022/04/01 09:55:02;;;;;;;16.35;6.53;;;1.20;99.90;;;;;;5058385;28;20032;-85
2022/04/01 09:57:28;;;;;;;13.35;6.25;;;1.20;99.90;;;;;;5058895;28;20032;-86
2022/04/01 09:59:54;;;;;;;17.58;7.00;;;1.20;99.90;;;;;;5058783;28;20139;-86
2022/04/01 10:02:26;;;;;;;11.02;6.25;;;1.30;99.90;;;;;;5058682;28;20141;-87
2022/04/01 10:04:54;;;;;;;10.13;5.95;;;1.30;99.90;;;;;;5049657;28;20022;-87
2022/04/01 10:07:32;;;;;;;10.93;5.78;;;1.20;99.90;;;;;;5038834;28;20018;-86
2022/04/01 10:09:58;;;;;;;17.23;6.68;;;1.30;99.90;;;;;;5046403;28;20025;-86
2022/04/01 10:12:27;;;;;;;13.45;6.93;;;1.30;99.90;;;;;;5058944;28;20025;-89
2022/04/01 10:15:00;;;;;;;18.75;7.28;;;1.30;99.90;;;;;;5056744;28;20032;-87
2022/04/01 10:17:29;;;;;;;14.32;7.10;;;1.40;99.90;;;;;;5055154;28;20156;-87
2022/04/01 10:20:03;;;;;;;8.93;5.65;;;1.30;99.90;;;;;;5052034;28;20401;-86
2022/04/01 10:22:29;;;;;;;12.63;6.38;;;1.40;99.90;;;;;;5052567;28;20029;-90
2022/04/01 10:25:05;;;;;;;14.10;6.82;;;1.40;99.90;;;;;;5055545;28;20028;-90
2022/04/01 10:27:40;;;;;;;16.75;6.70;;;1.40;99.90;;;;;;5054278;28;20077;-90
2022/04/01 10:30:18;;;;;;;11.73;6.93;;;1.40;99.90;;;;;;5055339;28;20518;-90
2022/04/01 10:32:54;;;;;;;13.05;6.20;;;1.40;99.90;;;;;;5055053;28;20140;-90
2022/04/01 10:35:22;;;;;;;12.75;5.70;;;1.40;99.90;;;;;;5055465;28;20036;-90
2022/04/01 10:38:24;;;;;;;12.45;6.05;;;1.50;99.90;;;;;;5055322;28;20480;-91
2022/04/01 10:40:50;;;;;;;13.60;5.95;;;1.50;99.90;;;;;;5055230;28;20032;-90
2022/04/01 10:43:20;;;;;;;12.68;6.25;;;1.60;99.90;;;;;;5055034;28;20025;-90
2022/04/01 10:46:06;;;;;;;11.38;7.00;;;1.60;99.90;;;;;;5053715;28;20405;-90
2022/04/01 10:51:37;;;;;;;10.00;6.35;;;1.60;99.90;;;;;;5055032;28;20502;-88
2022/04/01 10:54:06;;;;;;;;;;;1.70;99.90;;;;;;5055409;28;20075;-89
2022/04/01 10:57:07;;;;;;;14.27;6.00;;;1.70;99.90;;;;;;5053793;28;20348;-87
2022/04/01 10:59:50;;;;;;;12.45;5.20;;;1.70;99.90;;;;;;5050525;28;20039;-86
2022/04/01 11:02:26;;;;;;;13.32;6.35;;;1.80;99.90;;;;;;5034948;28;20033;-89
2022/04/01 11:04:52;;;;;;;;;;;1.80;99.90;;;;;;5051330;28;20049;-90
2022/04/01 11:07:23;;;;;;;9.98;6.28;;;1.90;99.90;;;;;;5035260;28;19952;-90
2022/04/01 11:09:55;;;;;;;10.75;5.75;;;1.90;99.90;;;;;;5033711;28;20074;-89
2022/04/01 11:12:23;;;;;;;10.65;5.97;;;1.90;99.90;;;;;;5034951;28;20438;-90
2022/04/01 11:15:07;;;;;;;8.90;5.65;;;1.90;99.90;;;;;;5034786;28;20037;-90
2022/04/01 11:17:49;;;;;;;12.90;5.82;;;1.90;99.90;;;;;;5038341;28;20029;-90
2022/04/01 11:20:58;;;;;;;14.80;6.50;;;2.00;99.90;;;;;;5034867;28;20021;-90
2022/04/01 11:23:24;;;;;;;12.43;6.70;;;2.10;99.90;;;;;;5047998;28;20438;-88
2022/04/01 11:26:05;;;;;;;10.18;6.22;;;2.10;99.90;;;;;;5033181;28;20021;-86
2022/04/01 11:29:10;;;;;;;8.55;5.78;;;2.20;99.90;;;;;;5032565;28;20029;-88
2022/04/01 11:31:39;;;;;;;10.70;5.35;;;2.20;99.90;;;;;;5047025;28;20388;-87
2022/04/01 11:34:07;;;;;;;11.27;5.25;;;2.30;99.90;;;;;;5064919;28;20045;-87
2022/04/01 11:36:33;;;;;;;8.57;5.40;;;2.30;99.90;;;;;;5053996;28;20056;-87
2022/04/01 11:39:00;;;;;;;12.23;5.40;;;2.40;99.90;;;;;;5069505;28;20074;-87
2022/04/01 11:41:26;;;;;;;14.65;5.18;;;2.40;99.90;;;;;;5054039;28;20056;-87
2022/04/01 11:43:53;;;;;;;13.98;5.95;;;2.40;99.90;;;;;;5069561;28;20068;-87
2022/04/01 11:46:19;;;;;;;13.73;6.28;;;2.50;99.90;;;;;;5069056;28;20553;-87
2022/04/01 11:48:46;;;;;;;11.68;6.20;;;2.50;99.90;;;;;;5053938;28;20102;-87
2022/04/01 11:51:19;;;;;;;12.57;5.80;;;2.50;99.90;;;;;;5069311;28;20025;-87
2022/04/01 11:53:51;;;;;;;13.73;5.47;;;2.60;99.90;;;;;;5053693;28;20055;-87
2022/04/01 11:56:22;;;;;;;12.80;4.93;;;2.60;99.90;;;;;;5053851;28;20029;-87
2022/04/01 11:58:47;;;;;;;8.30;4.40;;;2.60;99.90;;;;;;5053602;28;20053;-88
2022/04/01 12:01:18;;;;;;;6.60;4.28;;;2.70;99.90;;;;;;5068628;28;20113;-88
2022/04/01 12:03:44;;;;;;;5.57;3.40;;;2.70;99.90;;;;;;5068644;28;20021;-88
2022/04/01 12:09:34;;;;;;;11.88;3.88;;;2.80;99.90;;;;;;5054016;28;20139;-86
2022/04/01 12:12:01;;;;;;;7.10;3.83;;;2.80;99.90;;;;;;5052369;28;20052;-87
2022/04/01 12:14:28;;;;;;;9.60;4.78;;;2.90;99.90;;;;;;5053379;28;20032;-89
2022/04/01 12:17:13;;;;;;;7.63;3.75;;;2.90;99.90;;;;;;5052924;28;20495;-86
2022/04/01 12:19:38;;;;;;;7.90;4.13;;;3.00;99.90;;;;;;5068648;28;20025;-87
2022/04/01 12:22:12;;;;;;;8.80;4.35;;;3.00;99.90;;;;;;5052123;28;20033;-87
2022/04/01 12:24:38;;;;;;;7.70;3.13;;;3.10;99.90;;;;;;5053486;28;20057;-87
2022/04/01 12:27:09;;;;;;;12.10;4.00;;;3.10;99.90;;;;;;5053423;28;20024;-86
2022/04/01 12:29:43;;;;;;;10.73;3.78;;;3.20;99.90;;;;;;5052159;28;20120;-87
2022/04/01 12:32:09;;;;;;;6.60;3.33;;;3.30;99.90;;;;;;5051796;28;20119;-86
2022/04/01 12:34:45;;;;;;;7.70;4.00;;;3.30;99.90;;;;;;5052060;28;20559;-87
2022/04/01 12:37:15;;;;;;;9.32;3.53;;;3.40;99.90;;;;;;5053351;28;20468;-86
2022/04/01 12:39:45;;;;;;;19.67;4.07;;;3.40;99.90;;;;;;5052656;28;20111;-86
2022/04/01 12:42:19;;;;;;;6.18;3.70;;;3.50;99.90;;;;;;5052758;28;20025;-85
2022/04/01 12:44:45;;;;;;;8.10;3.45;;;3.60;99.90;;;;;;5052906;28;20036;-85
2022/04/01 12:47:38;;;;;;;5.35;3.15;;;3.60;99.90;;;;;;5051220;28;20021;-86
2022/04/01 12:50:04;;;;;;;11.05;3.15;;;3.70;99.90;;;;;;5068286;28;20362;-86
2022/04/01 12:52:49;;;;;;;10.93;4.20;;;3.80;99.90;;;;;;5052557;28;20108;-86
2022/04/01 12:55:24;;;;;;;9.65;4.38;;;3.90;99.90;;;;;;5052852;28;20052;-87
2022/04/01 12:57:50;;;;;;;;;;;4.00;99.90;;;;;;5053341;28;20033;-88
2022/04/01 13:00:26;;;;;;;6.72;3.17;;;4.00;99.90;;;;;;5051443;28;19919;-88
2022/04/01 13:02:51;;;;;;;;;;;4.00;99.90;;;;;;5052564;28;20033;-86
2022/04/01 13:05:23;;;;;;;7.53;3.63;;;4.00;99.90;;;;;;5051347;28;19954;-85
2022/04/01 13:07:51;;;;;;;6.13;2.88;;;4.00;99.90;;;;;;5052161;28;20095;-86
2022/04/01 13:10:21;;;;;;;19.67;4.13;;;4.00;99.90;;;;;;5052522;28;20480;-85
2022/04/01 13:12:48;;;;;;;8.70;4.05;;;4.00;99.90;;;;;;5052446;28;20373;-85
2022/04/01 13:15:28;;;;;;;9.43;3.35;;;4.00;99.90;;;;;;5051039;28;20036;-86
2022/04/01 13:17:56;;;;;;;8.07;3.67;;;4.10;99.90;;;;;;5052307;28;20414;-87
2022/04/01 13:20:46;;;;;;;10.85;3.80;;;4.00;99.90;;;;;;5052755;28;20349;-88
2022/04/01 13:23:11;;;;;;;14.23;3.63;;;4.00;99.90;;;;;;5052461;28;20031;-88
2022/04/01 13:25:52;;;;;;;7.10;3.28;;;4.10;99.90;;;;;;5052510;28;20017;-87
2022/04/01 13:28:17;;;;;;;26.13;3.67;;;4.10;99.90;;;;;;5052274;28;20441;-88
2022/04/01 13:30:45;;;;;;;13.20;4.57;;;4.10;99.90;;;;;;5051547;28;20052;-88